Time;durP1;ratioP1;P1;durP2;ratioP2;P2;SDS_P1;SDS_P2;PMS_P1;PMS_P2;Temp;Humidity;BMP_temperature;BMP_pressure;BME280_temperature;BME280_humidity;BME280_pressure;Samples;Min_cycle;Max_cycle;Signal;HPM_P1;HPM_P2
2024/02/20 00:00:33;;;;;;;;;;;;;;;25.25;39.44;95185.03;4983741;28;6985;-56
2024/02/20 00:02:59;;;;;;;;;;;;;;;25.25;39.63;95185.03;4978104;28;7032;-56
2024/02/20 00:05:24;;;;;;;;;;;;;;;25.27;38.73;95177.06;4978179;28;7143;-56
2024/02/20 00:08:26;;;;;;;;;;;;;;;25.27;39.74;95183.28;4995009;28;8701;-56
2024/02/20 00:10:56;;;;;;;;;;;;;;;25.25;38.99;95174.03;4917383;29;7112;-56
2024/02/20 00:13:23;;;;;;;;;;;;;;;25.26;39.54;95183.78;4915280;29;7257;-55
2024/02/20 00:15:52;;;;;;;;;;;;;;;25.25;39.28;95179.53;4938046;28;7290;-57
2024/02/20 00:18:57;;;;;;;;;;;;;;;25.26;39.80;95178.28;4955698;28;8753;-56
2024/02/20 00:21:41;;;;;;;;;;;;;;;25.24;39.10;95187.03;4939955;28;7018;-55
2024/02/20 00:24:08;;;;;;;;;;;;;;;25.24;39.43;95186.28;4955451;28;6998;-38
2024/02/20 00:26:36;;;;;;;;;;;;;;;25.24;38.92;95186.28;4967027;28;7311;-38
2024/02/20 00:29:06;;;;;;;;;;;;;;;25.26;39.85;95194.81;4970461;28;6987;-37
2024/02/20 00:31:36;;;;;;;;;;;;;;;25.23;39.33;95193.78;4954154;28;7633;-39
2024/02/20 00:34:05;;;;;;;;;;;;;;;25.26;39.23;95187.31;4985557;28;7216;-39
2024/02/20 00:36:39;;;;;;;;;;;;;;;25.24;39.33;95192.53;4978275;28;7330;-39
2024/02/20 00:39:22;;;;;;;;;;;;;;;25.26;39.13;95189.28;4957577;28;7107;-38
2024/02/20 00:41:57;;;;;;;;;;;;;;;25.25;38.96;95191.28;4974171;28;9122;-38
2024/02/20 00:44:23;;;;;;;;;;;;;;;25.24;39.62;95183.53;5002732;28;7234;-38
2024/02/20 00:47:00;;;;;;;;;;;;;;;25.25;39.07;95179.53;5053675;28;9093;-38
2024/02/20 00:49:26;;;;;;;;;;;;;;;25.26;39.24;95178.28;5053983;28;7835;-37
2024/02/20 00:51:52;;;;;;;;;;;;;;;25.26;39.53;95170.03;5032166;28;7232;-37
2024/02/20 00:54:18;;;;;;;;;;;;;;;25.25;39.25;95165.78;5049071;28;9464;-38
2024/02/20 00:56:44;;;;;;;;;;;;;;;25.25;39.80;95172.00;5035081;28;8733;-39
2024/02/20 00:59:11;;;;;;;;;;;;;;;25.26;39.30;95164.50;5032034;28;9061;-38
2024/02/20 01:01:37;;;;;;;;;;;;;;;25.26;39.68;95170.03;5041484;28;6860;-38
2024/02/20 01:04:04;;;;;;;;;;;;;;;25.26;39.46;95161.75;5043283;28;7067;-38
2024/02/20 01:06:31;;;;;;;;;;;;;;;25.25;39.84;95157.50;5053157;28;8040;-38
2024/02/20 01:08:59;;;;;;;;;;;;;;;25.24;39.09;95159.50;5035252;28;7509;-38
2024/02/20 01:11:27;;;;;;;;;;;;;;;25.23;38.88;95160.75;5051677;28;8813;-38
2024/02/20 01:13:53;;;;;;;;;;;;;;;25.25;38.80;95161.00;5034512;28;7238;-37
2024/02/20 01:16:20;;;;;;;;;;;;;;;25.27;39.15;95161.25;5051235;28;7521;-39
2024/02/20 01:18:51;;;;;;;;;;;;;;;25.26;39.80;95159.00;5036374;28;9031;-38
2024/02/20 01:21:17;;;;;;;;;;;;;;;25.26;39.84;95161.75;5035754;28;7382;-38
2024/02/20 01:23:54;;;;;;;;;;;;;;;25.27;39.08;95163.28;5036589;28;7263;-38
2024/02/20 01:26:33;;;;;;;;;;;;;;;25.26;39.05;95165.28;5053676;28;7000;-37
2024/02/20 01:28:59;;;;;;;;;;;;;;;25.26;39.08;95153.50;5038525;28;7059;-38
2024/02/20 01:31:32;;;;;;;;;;;;;;;25.25;39.48;95150.00;5033434;28;7319;-38
2024/02/20 01:34:07;;;;;;;;;;;;;;;25.27;39.83;95155.03;5023307;28;6989;-41
2024/02/20 01:36:40;;;;;;;;;;;;;;;25.27;39.12;95166.78;5053628;28;6961;-41
2024/02/20 01:39:08;;;;;;;;;;;;;;;25.24;39.08;95165.00;5054950;28;8954;-40
2024/02/20 01:41:36;;;;;;;;;;;;;;;25.23;38.91;95159.97;5034804;28;7286;-40
2024/02/20 01:44:11;;;;;;;;;;;;;;;25.24;38.98;95156.75;5052921;28;9033;-41
2024/02/20 01:46:37;;;;;;;;;;;;;;;25.26;39.20;95170.78;5050397;28;7317;-41
2024/02/20 01:49:14;;;;;;;;;;;;;;;25.26;39.00;95159.78;5037014;28;7236;-40
2024/02/20 01:51:41;;;;;;;;;;;;;;;25.25;39.12;95158.25;5036896;28;7255;-40
2024/02/20 01:54:07;;;;;;;;;;;;;;;25.24;39.66;95156.75;5051500;28;7176;-40
2024/02/20 01:56:35;;;;;;;;;;;;;;;25.22;39.11;95150.22;5052048;28;8840;-42
2024/02/20 01:59:02;;;;;;;;;;;;;;;25.26;39.68;95150.75;5032639;28;7245;-40
2024/02/20 02:01:35;;;;;;;;;;;;;;;25.26;38.95;95148.75;5016715;28;6995;-40
2024/02/20 02:04:03;;;;;;;;;;;;;;;25.25;39.29;95158.25;5041122;28;9752;-40
2024/02/20 02:06:37;;;;;;;;;;;;;;;25.26;39.09;95159.00;5036627;28;7458;-40
2024/02/20 02:09:11;;;;;;;;;;;;;;;25.26;39.06;95161.75;5053074;28;7297;-40
2024/02/20 02:12:13;;;;;;;;;;;;;;;25.27;39.81;95155.03;5033148;28;7664;-40
2024/02/20 02:14:56;;;;;;;;;;;;;;;25.23;39.00;95148.97;5049693;28;7965;-43
2024/02/20 02:17:36;;;;;;;;;;;;;;;25.25;39.45;95146.50;5016440;28;7037;-41
2024/02/20 02:20:19;;;;;;;;;;;;;;;25.25;39.20;95152.75;5016784;28;9133;-42
2024/02/20 02:22:58;;;;;;;;;;;;;;;25.25;39.53;95150.00;5033224;28;8096;-41
2024/02/20 02:25:25;;;;;;;;;;;;;;;25.24;39.71;95144.97;5033347;28;7368;-39
2024/02/20 02:27:53;;;;;;;;;;;;;;;25.23;39.10;95154.47;5020521;28;9126;-40
2024/02/20 02:30:22;;;;;;;;;;;;;;;25.27;38.89;95160.53;5029165;28;7197;-40
2024/02/20 02:32:50;;;;;;;;;;;;;;;25.25;39.49;95169.25;5038630;28;7341;-41
2024/02/20 02:35:15;;;;;;;;;;;;;;;25.26;39.53;95168.03;5055408;28;7236;-42
2024/02/20 02:38:30;;;;;;;;;;;;;;;25.26;38.81;95170.78;5056562;28;6989;-40
2024/02/20 02:41:03;;;;;;;;;;;;;;;25.24;40.06;95167.78;5053373;28;7253;-41
2024/02/20 02:43:30;;;;;;;;;;;;;;;25.22;39.40;95170.25;5047455;28;8831;-38
2024/02/20 02:46:24;;;;;;;;;;;;;;;25.26;38.73;95172.78;5056516;28;8462;-39
2024/02/20 02:48:53;;;;;;;;;;;;;;;25.25;39.39;95182.28;4960510;28;7325;-39
2024/02/20 02:51:20;;;;;;;;;;;;;;;25.26;39.02;95175.53;4976523;28;7240;-38
2024/02/20 02:54:05;;;;;;;;;;;;;;;25.26;39.49;95178.28;4973487;28;9071;-39
2024/02/20 02:56:30;;;;;;;;;;;;;;;25.25;39.86;95176.78;4956452;28;7168;-39
2024/02/20 02:58:59;;;;;;;;;;;;;;;25.25;39.70;95179.53;4956956;28;7266;-41
2024/02/20 03:01:34;;;;;;;;;;;;;;;25.24;39.26;95178.78;4972348;28;9090;-38
2024/02/20 03:04:12;;;;;;;;;;;;;;;25.25;38.91;95177.53;4968883;28;8699;-38
2024/02/20 03:06:42;;;;;;;;;;;;;;;25.23;39.17;95184.75;4941925;28;9132;-39
2024/02/20 03:09:26;;;;;;;;;;;;;;;25.25;39.17;95180.28;4940554;28;7305;-39
2024/02/20 03:11:52;;;;;;;;;;;;;;;25.25;39.42;95179.53;4953995;28;9084;-39
2024/02/20 03:14:40;;;;;;;;;;;;;;;25.25;39.81;95185.78;4948873;28;7045;-39
2024/02/20 03:17:43;;;;;;;;;;;;;;;25.25;39.93;95179.53;4976186;28;7062;-40
2024/02/20 03:20:17;;;;;;;;;;;;;;;25.25;39.48;95185.78;4914518;29;7688;-40
2024/02/20 03:23:00;;;;;;;;;;;;;;;25.23;39.77;95184.75;4897338;29;8665;-40
2024/02/20 03:25:42;;;;;;;;;;;;;;;25.24;39.65;95198.06;4915383;29;7242;-40
2024/02/20 03:28:35;;;;;;;;;;;;;;;25.27;39.19;95193.56;4937689;29;7229;-40
2024/02/20 03:31:09;;;;;;;;;;;;;;;25.25;40.02;95201.56;4937203;29;9416;-39
2024/02/20 03:33:35;;;;;;;;;;;;;;;25.24;39.14;95206.31;4930681;28;6979;-39
2024/02/20 03:36:07;;;;;;;;;;;;;;;25.23;39.30;95204.78;4956253;28;9491;-40
2024/02/20 03:38:49;;;;;;;;;;;;;;;25.25;39.65;95207.06;4940071;28;7442;-39
2024/02/20 03:41:25;;;;;;;;;;;;;;;25.25;39.45;95213.31;4971876;28;7216;-40
2024/02/20 03:44:22;;;;;;;;;;;;;;;25.26;38.89;95214.06;4951528;28;6993;-39
2024/02/20 03:46:58;;;;;;;;;;;;;;;25.25;38.90;95207.06;4940199;28;7098;-40
2024/02/20 03:49:54;;;;;;;;;;;;;;;25.25;38.99;95212.59;4940161;28;9685;-41
2024/02/20 03:52:51;;;;;;;;;;;;;;;25.25;39.95;95218.09;4937055;29;7242;-40
2024/02/20 03:56:10;;;;;;;;;;;;;;;25.25;38.89;95229.09;4880362;29;7516;-38
2024/02/20 03:58:36;;;;;;;;;;;;;;;25.22;39.41;95208.03;4880311;29;7244;-37
2024/02/20 04:01:01;;;;;;;;;;;;;;;25.23;39.11;95221.31;4880528;29;8813;-38
2024/02/20 04:03:27;;;;;;;;;;;;;;;25.22;39.02;95213.53;4880118;29;8725;-37
2024/02/20 04:05:54;;;;;;;;;;;;;;;25.26;39.63;95222.34;4864806;29;9063;-38
2024/02/20 04:08:48;;;;;;;;;;;;;;;25.23;39.00;95234.31;4864663;29;7258;-37
2024/02/20 04:11:25;;;;;;;;;;;;;;;25.21;39.54;95228.53;4880261;29;8779;-38
2024/02/20 04:14:11;;;;;;;;;;;;;;;25.22;39.64;95232.81;4865285;29;7179;-38
2024/02/20 04:16:52;;;;;;;;;;;;;;;25.23;39.43;95231.56;4867311;29;7533;-38
2024/02/20 04:19:42;;;;;;;;;;;;;;;25.24;39.92;95233.84;4864592;29;8994;-37
2024/02/20 04:22:21;;;;;;;;;;;;;;;25.24;39.43;95238.59;4880047;29;8779;-37
2024/02/20 04:25:43;;;;;;;;;;;;;;;25.24;39.92;95239.34;4880224;29;7067;-38
2024/02/20 04:28:44;;;;;;;;;;;;;;;25.23;38.98;95248.06;4873555;29;7017;-38
2024/02/20 04:31:35;;;;;;;;;;;;;;;25.24;39.81;95246.84;4856041;29;7558;-37
2024/02/20 04:34:25;;;;;;;;;;;;;;;25.25;39.69;95248.38;4892026;29;7237;-38
2024/02/20 04:36:51;;;;;;;;;;;;;;;25.24;39.75;95255.09;4936214;29;7587;-37
2024/02/20 04:39:33;;;;;;;;;;;;;;;25.25;39.14;95262.13;4920126;29;6995;-37
2024/02/20 04:41:59;;;;;;;;;;;;;;;25.25;39.36;95260.13;4926533;29;7297;-38
2024/02/20 04:44:28;;;;;;;;;;;;;;;25.23;39.39;95264.59;4918566;29;7062;-38
2024/02/20 04:46:55;;;;;;;;;;;;;;;25.23;39.59;95264.59;4899593;29;7274;-38
2024/02/20 04:49:25;;;;;;;;;;;;;;;25.26;38.96;95271.91;4909642;29;9271;-37
2024/02/20 04:51:53;;;;;;;;;;;;;;;25.23;39.71;95267.34;4913761;29;7404;-38
2024/02/20 04:54:19;;;;;;;;;;;;;;;25.25;39.42;95273.88;4917881;29;9468;-38
2024/02/20 04:56:45;;;;;;;;;;;;;;;25.21;38.91;95262.34;4916836;29;7258;-38
2024/02/20 04:59:11;;;;;;;;;;;;;;;25.23;38.85;95275.63;4927967;29;8774;-38
2024/02/20 05:01:37;;;;;;;;;;;;;;;25.24;39.65;95282.66;4913547;28;7231;-37
2024/02/20 05:04:03;;;;;;;;;;;;;;;25.23;39.70;95273.63;4952641;28;8355;-57
2024/02/20 05:06:31;;;;;;;;;;;;;;;25.25;39.90;95278.66;4987194;28;6987;-57
2024/02/20 05:09:00;;;;;;;;;;;;;;;25.24;38.85;95272.38;5036456;28;6992;-57
2024/02/20 05:11:26;;;;;;;;;;;;;;;25.24;40.17;95283.41;5032046;28;7091;-57
2024/02/20 05:13:53;;;;;;;;;;;;;;;25.26;38.89;95274.66;5036116;28;7232;-57
2024/02/20 05:16:18;;;;;;;;;;;;;;;25.24;39.75;95280.66;5051581;28;7255;-57
2024/02/20 05:18:44;;;;;;;;;;;;;;;25.21;39.65;95267.09;5035553;28;7219;-57
2024/02/20 05:21:13;;;;;;;;;;;;;;;25.24;39.31;95282.66;5053242;28;7009;-56
2024/02/20 05:23:41;;;;;;;;;;;;;;;25.25;39.97;95289.69;5047075;28;9430;-57
2024/02/20 05:26:09;;;;;;;;;;;;;;;25.24;39.40;95290.91;5051428;28;7241;-57
2024/02/20 05:28:35;;;;;;;;;;;;;;;25.25;38.96;95292.44;5051418;28;7029;-57
2024/02/20 05:31:28;;;;;;;;;;;;;;;25.26;39.65;95296.69;5051691;28;7182;-57
2024/02/20 05:33:58;;;;;;;;;;;;;;;25.24;39.94;95288.16;5034960;28;7327;-57
2024/02/20 05:36:33;;;;;;;;;;;;;;;25.24;39.26;95299.16;5034537;28;7239;-56
2024/02/20 05:39:00;;;;;;;;;;;;;;;25.23;39.05;95295.66;5052065;28;7243;-57
2024/02/20 05:41:32;;;;;;;;;;;;;;;25.24;38.99;95302.69;5048216;28;7292;-57
2024/02/20 05:44:01;;;;;;;;;;;;;;;25.25;39.52;95309.69;5052558;28;7236;-57
2024/02/20 05:46:30;;;;;;;;;;;;;;;25.24;39.74;95301.91;5052706;28;7070;-57
2024/02/20 05:48:57;;;;;;;;;;;;;;;25.25;39.04;95306.19;5038230;28;8694;-57
2024/02/20 05:51:25;;;;;;;;;;;;;;;25.24;39.00;95304.66;5035101;28;8825;-57
2024/02/20 05:54:03;;;;;;;;;;;;;;;25.23;39.00;95306.66;5052400;28;7238;-57
2024/02/20 05:56:31;;;;;;;;;;;;;;;25.21;39.31;95309.16;5052859;28;7050;-57
2024/02/20 05:58:58;;;;;;;;;;;;;;;25.24;39.31;95305.44;5054728;28;7169;-57
2024/02/20 06:01:26;;;;;;;;;;;;;;;25.23;39.72;95309.41;5052898;28;8577;-57
2024/02/20 06:03:54;;;;;;;;;;;;;;;25.24;39.32;95313.69;5036348;28;8448;-39
2024/02/20 06:06:22;;;;;;;;;;;;;;;25.23;39.75;95317.69;5049223;28;7191;-39
2024/02/20 06:08:50;;;;;;;;;;;;;;;25.24;39.23;95323.94;5031064;28;7206;-39
2024/02/20 06:11:19;;;;;;;;;;;;;;;25.23;39.79;95319.66;5034052;28;7279;-41
2024/02/20 06:13:47;;;;;;;;;;;;;;;25.25;39.55;95328.97;5031430;28;7311;-39
2024/02/20 06:16:14;;;;;;;;;;;;;;;25.25;39.52;95330.97;5032797;28;7028;-39
2024/02/20 06:19:30;;;;;;;;;;;;;;;25.26;39.81;95332.47;5033982;28;7189;-39
2024/02/20 06:22:08;;;;;;;;;;;;;;;25.23;39.11;95328.69;5012078;28;7341;-39
2024/02/20 06:24:35;;;;;;;;;;;;;;;25.23;39.01;95328.69;5014916;28;7254;-38
2024/02/20 06:27:07;;;;;;;;;;;;;;;25.24;39.59;95334.97;5014744;28;9116;-39
2024/02/20 06:29:36;;;;;;;;;;;;;;;25.25;39.66;95342.00;5030717;28;7888;-39
2024/02/20 06:32:03;;;;;;;;;;;;;;;25.21;38.92;95342.19;4993991;28;7580;-39
2024/02/20 06:34:36;;;;;;;;;;;;;;;25.24;39.37;95346.72;5007919;28;9289;-39
2024/02/20 06:37:04;;;;;;;;;;;;;;;25.25;39.37;95353.00;5030558;28;7960;-40
2024/02/20 06:39:39;;;;;;;;;;;;;;;25.24;39.16;95346.72;5032588;28;8198;-39
2024/02/20 06:42:40;;;;;;;;;;;;;;;25.26;39.64;95354.50;5051487;28;8753;-39
2024/02/20 06:45:06;;;;;;;;;;;;;;;25.26;39.87;95360.00;4975991;28;7000;-39
2024/02/20 06:47:32;;;;;;;;;;;;;;;25.23;39.32;95363.72;4966363;28;7256;-40
2024/02/20 06:50:12;;;;;;;;;;;;;;;25.25;39.16;95369.53;4991071;28;8135;-41
2024/02/20 06:52:43;;;;;;;;;;;;;;;25.26;39.47;95369.03;4977994;28;7282;-39
2024/02/20 06:55:19;;;;;;;;;;;;;;;25.26;39.84;95366.28;4960684;28;9135;-39
2024/02/20 06:57:45;;;;;;;;;;;;;;;25.25;39.37;95377.78;4973942;28;9285;-39
2024/02/20 07:00:14;;;;;;;;;;;;;;;25.25;38.94;95380.53;4972884;28;8794;-38
2024/02/20 07:02:41;;;;;;;;;;;;;;;25.25;39.34;95389.53;4972735;28;9027;-39
2024/02/20 07:05:11;;;;;;;;;;;;;;;25.26;39.47;95384.78;4956535;28;8213;-39
2024/02/20 07:07:39;;;;;;;;;;;;;;;25.26;39.63;95390.28;4973315;28;8730;-39
2024/02/20 07:10:24;;;;;;;;;;;;;;;25.26;39.66;95395.81;4972793;28;7370;-41
2024/02/20 07:13:03;;;;;;;;;;;;;;;25.24;39.26;95388.03;4958342;28;6993;-56
2024/02/20 07:15:38;;;;;;;;;;;;;;;25.26;39.63;95395.81;4976047;28;7000;-57
2024/02/20 07:18:17;;;;;;;;;;;;;;;25.26;39.28;95393.03;4959366;28;7711;-57
2024/02/20 07:20:57;;;;;;;;;;;;;;;25.26;39.45;95402.06;5017407;28;6988;-57
2024/02/20 07:23:26;;;;;;;;;;;;;;;25.26;40.15;95402.06;5039620;28;8740;-57
2024/02/20 07:25:59;;;;;;;;;;;;;;;25.26;39.40;95395.81;5039535;28;9683;-57
2024/02/20 07:28:37;;;;;;;;;;;;;;;25.26;39.96;95407.56;5055608;28;7874;-57
2024/02/20 07:31:03;;;;;;;;;;;;;;;25.25;39.56;95399.81;5030423;28;7186;-57
2024/02/20 07:33:43;;;;;;;;;;;;;;;25.26;39.14;95401.31;5055423;28;7288;-57
2024/02/20 07:36:25;;;;;;;;;;;;;;;25.25;39.32;95405.31;5055647;28;8892;-57
2024/02/20 07:39:02;;;;;;;;;;;;;;;25.25;39.97;95416.34;5055748;28;9215;-57
2024/02/20 07:41:53;;;;;;;;;;;;;;;25.27;39.67;95405.59;5055673;28;7256;-57
2024/02/20 07:44:36;;;;;;;;;;;;;;;25.24;38.98;95410.06;5055433;28;7020;-57
2024/02/20 07:47:05;;;;;;;;;;;;;;;25.27;39.01;95413.84;5056229;28;7378;-57
2024/02/20 07:49:39;;;;;;;;;;;;;;;25.23;39.30;95416.03;5038619;28;7257;-57
2024/02/20 07:52:14;;;;;;;;;;;;;;;25.26;39.04;95423.34;5055921;28;7048;-57
2024/02/20 07:54:50;;;;;;;;;;;;;;;25.24;39.28;95418.31;5056247;28;7330;-57
2024/02/20 07:57:16;;;;;;;;;;;;;;;25.26;39.54;95423.34;5039035;28;8773;-57
2024/02/20 07:59:42;;;;;;;;;;;;;;;25.26;39.87;95417.84;5055216;28;6990;-57
2024/02/20 08:02:25;;;;;;;;;;;;;;;25.26;39.57;95420.59;5038603;28;7441;-57
2024/02/20 08:05:38;;;;;;;;;;;;;;;25.26;39.83;95424.09;5054760;28;7191;-57
2024/02/20 08:08:06;;;;;;;;;;;;;;;25.26;39.57;95424.09;4959495;28;9011;-57
2024/02/20 08:10:59;;;;;;;;;;;;;;;25.28;39.59;95423.59;4944884;28;7242;-57
2024/02/20 08:14:15;;;;;;;;;;;;;;;25.28;39.96;95429.88;4947520;28;7262;-57
2024/02/20 08:17:21;;;;;;;;;;;;;;;25.28;39.87;95435.38;4898255;29;7002;-57
2024/02/20 08:19:49;;;;;;;;;;;;;;;25.26;38.91;95432.34;4823488;29;7965;-57
2024/02/20 08:22:15;;;;;;;;;;;;;;;25.28;39.55;95437.38;4806883;29;8204;-57
2024/02/20 08:24:42;;;;;;;;;;;;;;;25.28;39.45;95442.88;4794318;29;6932;-40
2024/02/20 08:27:24;;;;;;;;;;;;;;;25.28;39.32;95449.16;4824582;29;9051;-40
2024/02/20 08:30:02;;;;;;;;;;;;;;;25.27;39.36;95438.63;4824759;29;6989;-40
2024/02/20 08:32:44;;;;;;;;;;;;;;;25.30;39.25;95441.16;4824313;29;7414;-40
2024/02/20 08:35:21;;;;;;;;;;;;;;;25.30;39.09;95443.16;4809205;29;7447;-40
2024/02/20 08:37:51;;;;;;;;;;;;;;;25.29;39.93;95431.38;4801829;29;7187;-40
2024/02/20 08:40:31;;;;;;;;;;;;;;;25.29;38.96;95438.91;4808796;29;6990;-40
2024/02/20 08:43:36;;;;;;;;;;;;;;;25.30;38.90;95445.91;4806099;29;9356;-40
2024/02/20 08:46:32;;;;;;;;;;;;;;;25.31;38.97;95444.69;4861115;29;7288;-40
2024/02/20 08:48:59;;;;;;;;;;;;;;;25.30;39.87;95448.66;4836510;29;7421;-40
2024/02/20 08:51:29;;;;;;;;;;;;;;;25.31;39.83;95452.94;4877289;29;8877;-40
2024/02/20 08:53:59;;;;;;;;;;;;;;;25.31;39.69;95452.94;4944898;28;7036;-40
2024/02/20 08:56:28;;;;;;;;;;;;;;;25.31;39.48;95447.44;4937690;28;7230;-40
2024/02/20 08:58:54;;;;;;;;;;;;;;;25.32;39.28;95454.44;4954203;28;7194;-40
2024/02/20 09:01:24;;;;;;;;;;;;;;;25.31;39.81;95456.47;4950694;28;9184;-40
2024/02/20 09:03:59;;;;;;;;;;;;;;;25.32;38.92;95451.69;4938383;28;8427;-39
2024/02/20 09:06:27;;;;;;;;;;;;;;;25.31;39.30;95452.94;4954097;28;7194;-39
2024/02/20 09:08:54;;;;;;;;;;;;;;;25.31;39.42;95458.44;4936056;28;9122;-40
2024/02/20 09:11:20;;;;;;;;;;;;;;;25.34;39.19;95462.97;4936670;28;9430;-40
2024/02/20 09:13:46;;;;;;;;;;;;;;;25.32;39.80;95454.44;4936671;28;7871;-41
2024/02/20 09:16:12;;;;;;;;;;;;;;;25.32;39.35;95459.94;4949074;28;7038;-40
2024/02/20 09:18:38;;;;;;;;;;;;;;;25.33;39.33;95467.75;4935740;28;7065;-41
2024/02/20 09:21:08;;;;;;;;;;;;;;;25.35;39.08;95467.25;4936249;28;9270;-39
2024/02/20 09:23:42;;;;;;;;;;;;;;;25.35;39.76;95467.25;4953750;28;6993;-40
2024/02/20 09:26:14;;;;;;;;;;;;;;;25.37;39.66;95467.53;5023015;28;9102;-40
2024/02/20 09:29:01;;;;;;;;;;;;;;;25.35;39.01;95470.78;5053300;28;6867;-40
2024/02/20 09:31:46;;;;;;;;;;;;;;;25.37;39.64;95473.78;5053128;28;9244;-40
2024/02/20 09:34:18;;;;;;;;;;;;;;;25.37;39.50;95468.28;5035681;28;8698;-39
2024/02/20 09:37:19;;;;;;;;;;;;;;;25.39;39.86;95467.78;5053786;28;7276;-40
2024/02/20 09:40:04;;;;;;;;;;;;;;;25.39;38.93;95474.06;5036269;28;8746;-39
2024/02/20 09:42:40;;;;;;;;;;;;;;;25.39;39.67;95467.78;5033573;28;7172;-39
2024/02/20 09:45:19;;;;;;;;;;;;;;;25.38;39.64;95469.06;5050657;28;9177;-41
2024/02/20 09:48:06;;;;;;;;;;;;;;;25.41;39.55;95465.31;5037359;28;8710;-39
2024/02/20 09:50:37;;;;;;;;;;;;;;;25.44;39.46;95467.13;5033370;28;7152;-40
2024/02/20 09:53:23;;;;;;;;;;;;;;;25.43;38.69;95465.63;5048896;28;9131;-39
2024/02/20 09:55:58;;;;;;;;;;;;;;;25.42;38.66;95473.13;5041269;28;7452;-39
2024/02/20 09:58:24;;;;;;;;;;;;;;;25.41;38.68;95468.84;5053246;28;7245;-39
2024/02/20 10:00:53;;;;;;;;;;;;;;;25.43;38.98;95460.09;5054449;28;7418;-41
2024/02/20 10:03:20;;;;;;;;;;;;;;;25.39;38.67;95457.53;5053234;28;7919;-39
2024/02/20 10:05:48;;;;;;;;;;;;;;;25.42;39.64;95458.59;5053948;28;7169;-40
2024/02/20 10:08:25;;;;;;;;;;;;;;;25.40;39.25;95452.78;5053280;28;8229;-39
2024/02/20 10:10:51;;;;;;;;;;;;;;;25.41;39.62;95457.06;5035601;28;7084;-39
2024/02/20 10:13:19;;;;;;;;;;;;;;;25.38;38.81;95453.25;5050624;28;9251;-41
2024/02/20 10:15:47;;;;;;;;;;;;;;;25.41;39.27;95457.06;5052144;28;8773;-40
2024/02/20 10:18:20;;;;;;;;;;;;;;;25.41;39.55;95459.81;5051384;28;8824;-40
2024/02/20 10:20:51;;;;;;;;;;;;;;;25.43;39.41;95465.63;5034475;28;7228;-39
2024/02/20 10:23:19;;;;;;;;;;;;;;;25.41;39.55;95465.31;5052753;28;7650;-39
2024/02/20 10:25:56;;;;;;;;;;;;;;;25.41;38.81;95457.81;5050754;28;8727;-40
2024/02/20 10:28:22;;;;;;;;;;;;;;;25.43;39.08;95466.38;5034353;28;7288;-39
2024/02/20 10:30:51;;;;;;;;;;;;;;;25.42;39.15;95459.34;5035235;28;7540;-41
2024/02/20 10:33:21;;;;;;;;;;;;;;;25.43;39.65;95449.84;5053949;28;9111;-39
2024/02/20 10:36:18;;;;;;;;;;;;;;;25.45;39.10;95454.88;5036936;28;9151;-40
2024/02/20 10:39:12;;;;;;;;;;;;;;;25.44;38.45;95453.38;5033064;28;7278;-39
2024/02/20 10:41:41;;;;;;;;;;;;;;;25.45;38.48;95454.88;5048613;28;9687;-38
2024/02/20 10:44:11;;;;;;;;;;;;;;;25.46;38.48;95453.63;5069651;28;9052;-37
2024/02/20 10:46:45;;;;;;;;;;;;;;;25.45;38.86;95454.13;5069254;28;7332;-37
2024/02/20 10:49:25;;;;;;;;;;;;;;;25.45;39.41;95454.88;5056299;28;7155;-37
2024/02/20 10:52:01;;;;;;;;;;;;;;;25.46;39.26;95450.88;5056247;28;7154;-37
2024/02/20 10:54:30;;;;;;;;;;;;;;;25.45;38.98;95452.13;5052004;28;9380;-37
2024/02/20 10:56:57;;;;;;;;;;;;;;;25.43;39.24;95452.59;5035105;28;7194;-37
2024/02/20 10:59:29;;;;;;;;;;;;;;;25.43;38.77;95449.84;5036066;28;7435;-37
2024/02/20 11:01:55;;;;;;;;;;;;;;;25.43;38.47;95449.84;5019924;28;7319;-37
2024/02/20 11:04:22;;;;;;;;;;;;;;;25.46;38.73;95439.09;5030137;28;7214;-37
2024/02/20 11:07:06;;;;;;;;;;;;;;;25.46;38.61;95442.63;5039644;28;7350;-37
2024/02/20 11:10:12;;;;;;;;;;;;;;;25.52;38.97;95434.41;5040032;28;9004;-37
2024/02/20 11:12:38;;;;;;;;;;;;;;;25.52;38.69;95431.66;4956835;28;7085;-37
2024/02/20 11:15:19;;;;;;;;;;;;;;;25.54;38.64;95434.66;4941063;28;7241;-37
2024/02/20 11:18:23;;;;;;;;;;;;;;;25.54;39.21;95440.94;4940638;28;8237;-37
2024/02/20 11:21:06;;;;;;;;;;;;;;;25.56;38.96;95432.94;4881191;29;7306;-37
2024/02/20 11:23:52;;;;;;;;;;;;;;;25.58;39.17;95427.72;4867409;29;7280;-37
2024/02/20 11:26:59;;;;;;;;;;;;;;;25.57;38.82;95431.72;4884313;29;9282;-37
2024/02/20 11:29:45;;;;;;;;;;;;;;;25.59;38.61;95422.97;4828510;29;7393;-37
2024/02/20 11:32:40;;;;;;;;;;;;;;;25.61;38.88;95415.72;4843595;29;7601;-37
2024/02/20 11:35:34;;;;;;;;;;;;;;;25.61;39.22;95410.22;4785627;30;7088;-37
2024/02/20 11:38:16;;;;;;;;;;;;;;;25.63;38.26;95407.72;4786369;29;9183;-37
2024/02/20 11:41:16;;;;;;;;;;;;;;;25.63;38.51;95407.72;4789492;29;7382;-37
2024/02/20 11:44:04;;;;;;;;;;;;;;;25.61;39.22;95407.47;4738223;30;7834;-37
2024/02/20 11:46:33;;;;;;;;;;;;;;;25.61;38.32;95403.94;4748892;30;8432;-37
2024/02/20 11:49:20;;;;;;;;;;;;;;;25.62;38.40;95399.97;4798651;29;7856;-37
2024/02/20 11:51:46;;;;;;;;;;;;;;;25.61;38.56;95401.19;4804843;29;8137;-37
2024/02/20 11:54:12;;;;;;;;;;;;;;;25.60;38.37;95397.66;4820701;29;9084;-37
2024/02/20 11:56:40;;;;;;;;;;;;;;;25.59;38.56;95395.41;4860597;29;8765;-37
2024/02/20 11:59:09;;;;;;;;;;;;;;;25.60;38.29;95389.41;4860323;29;7250;-37
2024/02/20 12:01:35;;;;;;;;;;;;;;;25.61;38.46;95390.16;4859361;29;7280;-37
2024/02/20 12:04:07;;;;;;;;;;;;;;;25.62;38.42;95392.44;4887211;29;7057;-37
2024/02/20 12:06:36;;;;;;;;;;;;;;;25.61;39.10;95385.41;4880818;29;7019;-37
2024/02/20 12:09:15;;;;;;;;;;;;;;;25.62;39.04;95378.66;4890825;29;9445;-37
2024/02/20 12:11:49;;;;;;;;;;;;;;;25.62;39.08;95377.91;4930118;28;7864;-36
2024/02/20 12:14:17;;;;;;;;;;;;;;;25.64;38.53;95376.19;4945708;28;7255;-37
2024/02/20 12:16:43;;;;;;;;;;;;;;;25.64;38.51;95375.44;4968426;28;9098;-37
2024/02/20 12:19:21;;;;;;;;;;;;;;;25.65;38.20;95376.94;4974521;28;7930;-37
2024/02/20 12:21:49;;;;;;;;;;;;;;;25.65;38.64;95374.94;5055293;28;7440;-37
2024/02/20 12:24:24;;;;;;;;;;;;;;;25.63;38.68;95382.16;5037615;28;8815;-37
2024/02/20 12:26:51;;;;;;;;;;;;;;;25.66;38.36;95381.22;5034988;28;9967;-37
2024/02/20 12:29:16;;;;;;;;;;;;;;;25.67;38.03;95379.94;5054586;28;6979;-37
2024/02/20 12:31:48;;;;;;;;;;;;;;;25.68;38.11;95376.72;5052807;28;7000;-37
2024/02/20 12:34:14;;;;;;;;;;;;;;;25.66;38.93;95379.22;5035527;28;7099;-37
2024/02/20 12:36:40;;;;;;;;;;;;;;;25.61;38.40;95377.16;5035956;28;8961;-37
2024/02/20 12:39:06;;;;;;;;;;;;;;;25.65;38.59;95383.19;5035963;28;7240;-37
2024/02/20 12:41:32;;;;;;;;;;;;;;;25.66;38.25;95368.19;5053327;28;9054;-37
2024/02/20 12:43:58;;;;;;;;;;;;;;;25.67;38.81;95374.44;5052400;28;7271;-37
2024/02/20 12:46:24;;;;;;;;;;;;;;;25.68;38.07;95375.97;5052483;28;6979;-37
2024/02/20 12:49:00;;;;;;;;;;;;;;;25.65;38.52;95376.94;5053961;28;7232;-37
2024/02/20 12:51:43;;;;;;;;;;;;;;;25.66;38.05;95373.72;5039803;28;7666;-37
2024/02/20 12:54:13;;;;;;;;;;;;;;;25.66;38.37;95381.97;5034366;28;7164;-37
2024/02/20 12:56:39;;;;;;;;;;;;;;;25.66;38.99;95373.72;5047188;28;7423;-37
2024/02/20 12:59:05;;;;;;;;;;;;;;;25.67;38.37;95377.97;5032574;28;7211;-37
2024/02/20 13:01:31;;;;;;;;;;;;;;;25.67;38.95;95380.72;5048996;28;7320;-37
2024/02/20 13:03:57;;;;;;;;;;;;;;;25.68;38.94;95375.97;5035128;28;8863;-41
2024/02/20 13:07:02;;;;;;;;;;;;;;;25.71;38.66;95372.97;5052755;28;7247;-43
2024/02/20 13:09:38;;;;;;;;;;;;;;;25.74;38.03;95372.00;5054495;28;9133;-42
2024/02/20 13:12:15;;;;;;;;;;;;;;;25.72;38.93;95370.97;5054406;28;9054;-41
2024/02/20 13:14:47;;;;;;;;;;;;;;;25.74;38.51;95369.25;5054720;28;7072;-41
2024/02/20 13:17:16;;;;;;;;;;;;;;;25.73;38.24;95362.22;5052484;28;9372;-41
2024/02/20 13:19:42;;;;;;;;;;;;;;;25.77;38.23;95368.28;5052876;28;9150;-41
2024/02/20 13:22:11;;;;;;;;;;;;;;;25.75;38.71;95361.75;5032200;28;9365;-41
2024/02/20 13:24:38;;;;;;;;;;;;;;;25.76;38.50;95360.50;5031080;28;7279;-41
2024/02/20 13:27:18;;;;;;;;;;;;;;;25.73;38.21;95361.50;5050035;28;6987;-41
2024/02/20 13:30:06;;;;;;;;;;;;;;;25.73;37.95;95359.47;5026823;28;7355;-41
2024/02/20 13:32:58;;;;;;;;;;;;;;;25.72;38.88;95359.97;5053477;28;7211;-41
2024/02/20 13:35:33;;;;;;;;;;;;;;;25.67;38.42;95355.91;5049042;28;7026;-41
2024/02/20 13:38:00;;;;;;;;;;;;;;;25.66;38.52;95357.16;5053300;28;7255;-41